LIMP 192050Z 10004KT CAVOK 22/10 Q1026 LIMP 191950Z 11005KT CAVOK 24/12 Q1025 LIMP 191850Z 09005KT CAVOK 24/13 Q1025 LIMP 191750Z 09007KT CAVOK 26/13 Q1024 LIMP 191650Z 09006KT CAVOK 26/13 Q1024 LIMP 191550Z 10008KT CAVOK 27/12 Q1024 LIMP 191450Z 09008KT 030V110 CAVOK 27/11 Q1025 LIMP 191350Z 09008KT 050V120 CAVOK 27/11 Q1025 LIMP 191250Z 10009KT 060V140 CAVOK 26/11 Q1025 LIMP 191150Z 11009KT 060V150 CAVOK 26/10 Q1026 LIMP 191050Z 09010KT CAVOK 25/10 Q1026 LIMP 190950Z 10010KT 070V130 CAVOK 25/09 Q1027 LIMP 190850Z 09007KT 060V130 CAVOK 24/10 Q1027 LIMP 190750Z 09006KT 060V130 CAVOK 21/11 Q1027 LIMP 190650Z 09008KT CAVOK 19/10 Q1027 LIMP 190550Z VRB01KT CAVOK 17/11 Q1027 LIMP 190457Z 26004KT CAVOK 14/11 Q1026 LIMP 182050Z 10007KT CAVOK 20/11 Q1023 LIMP 181950Z 09011KT CAVOK 22/12 Q1023 LIMP 181850Z 09007KT CAVOK 23/11 Q1022 LIMP 181750Z 10010KT CAVOK 25/11 Q1021 LIMP 181650Z 09013KT CAVOK 27/12 Q1021 LIMP 181550Z 09012KT CAVOK 27/13 Q1021 LIMP 181450Z 09012KT CAVOK 27/14 Q1021 LIMP 181350Z 10014KT 060V120 CAVOK 27/14 Q1021

METAR Messwerte "PARMA" LIMP

Zurück zur Übersicht

Ortsname
Ländercode / m ü. NN
Zeit Temperatur Taupunkt Rel.
Luftfeuchte
Luftdruck:
Altimeter
NN
Station
Wind in Beaufort
(Knoten)
Sichtweite
(Meter)
Wolken
(Meter über Grund)
Wettererscheinung
PARMA
IT 41
Do 19.05. 22:50221046 %1026
1026
1021
O 2 (4)>= 10000Nicht signifikant 
PARMA
IT 41
Do 19.05. 21:50241247 %1025
1025
1020
OSO 2 (5)>= 10000Nicht signifikant 
PARMA
IT 41
Do 19.05. 20:50241350 %1025
1025
1020
O 2 (5)>= 10000Nicht signifikant 
PARMA
IT 41
Do 19.05. 19:50261345 %1024
1024
1019
O 3 (7)>= 10000Nicht signifikant 
PARMA
IT 41
Do 19.05. 18:50261345 %1024
1024
1019
O 2 (6)>= 10000Nicht signifikant 
PARMA
IT 41
Do 19.05. 17:50271239 %1024
1024
1019
O 3 (8)>= 10000Nicht signifikant 
PARMA
IT 41
Do 19.05. 16:50271137 %1025
1025
1020
O 3 (8)
NNO - OSO
>= 10000Nicht signifikant 
PARMA
IT 41
Do 19.05. 15:50271137 %1025
1025
1020
O 3 (8)
NO - OSO
>= 10000Nicht signifikant 
PARMA
IT 41
Do 19.05. 14:50261139 %1025
1025
1020
O 3 (9)
ONO - SO
>= 10000Nicht signifikant 
PARMA
IT 41
Do 19.05. 13:50261037 %1026
1026
1021
OSO 3 (9)
ONO - SSO
>= 10000Nicht signifikant 
PARMA
IT 41
Do 19.05. 12:50251039 %1026
1026
1021
O 3 (10)>= 10000Nicht signifikant 
PARMA
IT 41
Do 19.05. 11:5025936 %1027
1027
1022
O 3 (10)
ONO - SO
>= 10000Nicht signifikant 
PARMA
IT 41
Do 19.05. 10:50241041 %1027
1027
1022
O 3 (7)
ONO - SO
>= 10000Nicht signifikant 
PARMA
IT 41
Do 19.05. 09:50211153 %1027
1027
1022
O 2 (6)
ONO - SO
>= 10000Nicht signifikant 
PARMA
IT 41
Do 19.05. 08:50191056 %1027
1027
1022
O 3 (8)>= 10000Nicht signifikant 
PARMA
IT 41
Do 19.05. 07:50171168 %1027
1027
1022
Uml 1 (1)>= 10000Nicht signifikant 
PARMA
IT 41
Do 19.05. 06:57141182 %1026
1026
1021
W 2 (4)>= 10000Nicht signifikant 
PARMA
IT 41
Mi 18.05. 22:50201156 %1023
1023
1018
O 3 (7)>= 10000Nicht signifikant 
PARMA
IT 41
Mi 18.05. 21:50221253 %1023
1023
1018
O 4 (11)>= 10000Nicht signifikant 
PARMA
IT 41
Mi 18.05. 20:50231147 %1022
1022
1017
O 3 (7)>= 10000Nicht signifikant 
PARMA
IT 41
Mi 18.05. 19:50251141 %1021
1021
1016
O 3 (10)>= 10000Nicht signifikant 
PARMA
IT 41
Mi 18.05. 18:50271239 %1021
1021
1016
O 4 (13)>= 10000Nicht signifikant 
PARMA
IT 41
Mi 18.05. 17:50271342 %1021
1021
1016
O 4 (12)>= 10000Nicht signifikant 
PARMA
IT 41
Mi 18.05. 16:50271445 %1021
1021
1016
O 4 (12)>= 10000Nicht signifikant 
PARMA
IT 41
Mi 18.05. 15:50271445 %1021
1021
1016
O 4 (14)
ONO - OSO
>= 10000Nicht signifikant 

Altimeter: Einstellung am Altimeter (Höhenmesser), die Höhe 0 muss auf diesen Luftdruckwert zeigen, damit das Gerät die Stationshöhe richtig anzeigt.

NN: Luftdruck reduziert auf "Normal Null", auf Meereshöhe, dieser von der Temperatur abhängige Wert wird bisweilen unkorrekt einfach als "Luftdruck" bezeichnet. Eigentlich nur eine fiktive Größe, die es erlaubt, Stationen auf unterschiedlichen Höhen miteinander zu vergleichen.

Station: Realer Luftdruck an der Station.